VGEG/CGP METAR and TAF weather

Enter ICAO airport designator
Station Type Date Time Source
VGEG METAR 2019/12/08 17:00 UTC NOAA

VGEG 081700Z 00000KT 4000 HZ SCT018 21/19 Q1017 NOSIG


Station Type Date Time Source
VGEG Decoded METAR 2019/12/08 17:00 UTC NOAA

Chittagong Patenga , Bangladesh (VGEG) 22-16N 091-49E 6M
Dec 08, 2019 - 12:00 PM EST / 2019.12.08 1700 UTC
Wind: Calm:0
Visibility: 2 mile(s):0
Sky conditions: partly cloudy
Weather: haze
Temperature: 69 F (21 C)
Dew Point: 66 F (19 C)
Relative Humidity: 88%
Pressure (altimeter): 30.03 in. Hg (1017 hPa)
ob: VGEG 081700Z 00000KT 4000 HZ SCT018 21/19 Q1017 NOSIG
cycle: 17

Station Type Date Time Source
VGEG TAF 2019/12/08 18:15 UTC NOAA

TAF TAF VGEG 081700Z 0818/0924 09003KT 3500 HZ FEW018
TEMPO 0822/0903 04003KT 2000 BR/FG SCT012
BECMG 0904/0906 30004KT 3500 HZ FEW018
BECMG 0918/0920 02003KT 2500 BR SCT015

Example: see airport list